sensor_id;sensor_type;location;lat;lon;timestamp;P1;durP1;ratioP1;P2;durP2;ratioP2
3189;SDS011;1606;51.946;10.558;2023-06-10T00:01:52;11.07;;;4.93;;
3189;SDS011;1606;51.946;10.558;2023-06-10T00:04:21;9.07;;;4.93;;
3189;SDS011;1606;51.946;10.558;2023-06-10T00:06:50;9.70;;;4.93;;
3189;SDS011;1606;51.946;10.558;2023-06-10T00:09:19;11.00;;;5.40;;
3189;SDS011;1606;51.946;10.558;2023-06-10T00:11:48;9.33;;;4.93;;
3189;SDS011;1606;51.946;10.558;2023-06-10T00:14:16;9.80;;;5.30;;
3189;SDS011;1606;51.946;10.558;2023-06-10T00:16:44;11.43;;;5.03;;
3189;SDS011;1606;51.946;10.558;2023-06-10T00:19:12;9.37;;;4.57;;
3189;SDS011;1606;51.946;10.558;2023-06-10T00:21:41;12.03;;;5.50;;
3189;SDS011;1606;51.946;10.558;2023-06-10T00:24:12;9.87;;;5.23;;
3189;SDS011;1606;51.946;10.558;2023-06-10T00:26:40;10.70;;;6.10;;
3189;SDS011;1606;51.946;10.558;2023-06-10T00:29:08;9.70;;;5.00;;
3189;SDS011;1606;51.946;10.558;2023-06-10T00:31:36;10.83;;;5.00;;
3189;SDS011;1606;51.946;10.558;2023-06-10T00:34:05;11.73;;;5.90;;
3189;SDS011;1606;51.946;10.558;2023-06-10T00:36:33;10.40;;;4.47;;
3189;SDS011;1606;51.946;10.558;2023-06-10T00:39:02;11.07;;;4.93;;
3189;SDS011;1606;51.946;10.558;2023-06-10T00:41:32;10.30;;;5.37;;
3189;SDS011;1606;51.946;10.558;2023-06-10T00:44:00;11.37;;;4.67;;
3189;SDS011;1606;51.946;10.558;2023-06-10T00:46:28;8.97;;;4.67;;
3189;SDS011;1606;51.946;10.558;2023-06-10T00:48:58;9.60;;;5.70;;
3189;SDS011;1606;51.946;10.558;2023-06-10T00:51:26;10.30;;;5.10;;
3189;SDS011;1606;51.946;10.558;2023-06-10T00:53:54;8.67;;;5.03;;
3189;SDS011;1606;51.946;10.558;2023-06-10T00:56:22;9.60;;;4.80;;
3189;SDS011;1606;51.946;10.558;2023-06-10T00:58:52;9.93;;;4.87;;
3189;SDS011;1606;51.946;10.558;2023-06-10T01:01:20;11.03;;;5.17;;
3189;SDS011;1606;51.946;10.558;2023-06-10T01:03:48;9.60;;;4.97;;
3189;SDS011;1606;51.946;10.558;2023-06-10T01:06:18;9.90;;;4.70;;
3189;SDS011;1606;51.946;10.558;2023-06-10T01:08:53;11.00;;;5.13;;
3189;SDS011;1606;51.946;10.558;2023-06-10T01:11:28;9.03;;;4.80;;
3189;SDS011;1606;51.946;10.558;2023-06-10T01:14:02;20.17;;;5.70;;
3189;SDS011;1606;51.946;10.558;2023-06-10T01:16:33;9.93;;;5.07;;
3189;SDS011;1606;51.946;10.558;2023-06-10T01:19:03;10.80;;;4.40;;
3189;SDS011;1606;51.946;10.558;2023-06-10T01:21:34;9.77;;;4.97;;
3189;SDS011;1606;51.946;10.558;2023-06-10T01:24:02;10.57;;;6.00;;
3189;SDS011;1606;51.946;10.558;2023-06-10T01:26:34;10.37;;;4.87;;
3189;SDS011;1606;51.946;10.558;2023-06-10T01:29:03;12.07;;;5.80;;
3189;SDS011;1606;51.946;10.558;2023-06-10T01:31:36;10.60;;;6.10;;
3189;SDS011;1606;51.946;10.558;2023-06-10T01:34:12;12.00;;;5.60;;
3189;SDS011;1606;51.946;10.558;2023-06-10T01:36:46;10.00;;;5.40;;
3189;SDS011;1606;51.946;10.558;2023-06-10T01:39:15;10.23;;;5.30;;
3189;SDS011;1606;51.946;10.558;2023-06-10T01:41:44;11.80;;;5.97;;
3189;SDS011;1606;51.946;10.558;2023-06-10T01:44:17;9.60;;;4.90;;
3189;SDS011;1606;51.946;10.558;2023-06-10T01:46:45;9.77;;;5.07;;
3189;SDS011;1606;51.946;10.558;2023-06-10T01:49:13;11.70;;;6.00;;
3189;SDS011;1606;51.946;10.558;2023-06-10T01:51:55;10.60;;;5.00;;
3189;SDS011;1606;51.946;10.558;2023-06-10T01:54:23;11.80;;;5.27;;
3189;SDS011;1606;51.946;10.558;2023-06-10T01:56:51;11.70;;;5.87;;
3189;SDS011;1606;51.946;10.558;2023-06-10T01:59:19;10.00;;;5.07;;
3189;SDS011;1606;51.946;10.558;2023-06-10T02:01:46;11.73;;;5.33;;
3189;SDS011;1606;51.946;10.558;2023-06-10T02:04:14;10.47;;;4.90;;
3189;SDS011;1606;51.946;10.558;2023-06-10T02:06:43;11.90;;;6.00;;
3189;SDS011;1606;51.946;10.558;2023-06-10T02:09:12;12.50;;;5.60;;
3189;SDS011;1606;51.946;10.558;2023-06-10T02:11:40;11.33;;;5.70;;
3189;SDS011;1606;51.946;10.558;2023-06-10T02:14:08;10.83;;;5.60;;
3189;SDS011;1606;51.946;10.558;2023-06-10T02:16:36;10.53;;;5.00;;
3189;SDS011;1606;51.946;10.558;2023-06-10T02:19:03;9.97;;;5.10;;
3189;SDS011;1606;51.946;10.558;2023-06-10T02:21:32;10.40;;;5.23;;
3189;SDS011;1606;51.946;10.558;2023-06-10T02:24:01;10.80;;;5.40;;
3189;SDS011;1606;51.946;10.558;2023-06-10T02:26:30;12.77;;;6.50;;
3189;SDS011;1606;51.946;10.558;2023-06-10T02:28:59;10.13;;;5.23;;
3189;SDS011;1606;51.946;10.558;2023-06-10T02:31:26;12.63;;;6.87;;
3189;SDS011;1606;51.946;10.558;2023-06-10T02:33:55;9.70;;;5.33;;
3189;SDS011;1606;51.946;10.558;2023-06-10T02:36:23;9.83;;;4.93;;
3189;SDS011;1606;51.946;10.558;2023-06-10T02:38:53;12.30;;;4.90;;
3189;SDS011;1606;51.946;10.558;2023-06-10T02:41:21;11.53;;;5.00;;
3189;SDS011;1606;51.946;10.558;2023-06-10T02:43:52;10.33;;;5.47;;
3189;SDS011;1606;51.946;10.558;2023-06-10T02:46:20;12.27;;;5.17;;
3189;SDS011;1606;51.946;10.558;2023-06-10T02:48:48;12.70;;;6.33;;
3189;SDS011;1606;51.946;10.558;2023-06-10T02:51:18;12.57;;;5.47;;
3189;SDS011;1606;51.946;10.558;2023-06-10T02:53:46;11.10;;;5.87;;
3189;SDS011;1606;51.946;10.558;2023-06-10T02:56:15;10.53;;;5.13;;
3189;SDS011;1606;51.946;10.558;2023-06-10T02:58:44;10.50;;;5.47;;
3189;SDS011;1606;51.946;10.558;2023-06-10T03:01:13;12.87;;;5.60;;
3189;SDS011;1606;51.946;10.558;2023-06-10T03:03:41;12.27;;;5.97;;
3189;SDS011;1606;51.946;10.558;2023-06-10T03:06:09;18.27;;;5.40;;
3189;SDS011;1606;51.946;10.558;2023-06-10T03:08:38;11.00;;;5.07;;
3189;SDS011;1606;51.946;10.558;2023-06-10T03:11:06;10.57;;;5.17;;
3189;SDS011;1606;51.946;10.558;2023-06-10T03:13:34;12.57;;;6.53;;
3189;SDS011;1606;51.946;10.558;2023-06-10T03:16:02;14.90;;;5.13;;
3189;SDS011;1606;51.946;10.558;2023-06-10T03:18:32;10.50;;;5.37;;
3189;SDS011;1606;51.946;10.558;2023-06-10T03:21:00;12.97;;;5.30;;
3189;SDS011;1606;51.946;10.558;2023-06-10T03:23:29;11.57;;;5.50;;
3189;SDS011;1606;51.946;10.558;2023-06-10T03:25:56;10.40;;;5.20;;
3189;SDS011;1606;51.946;10.558;2023-06-10T03:28:24;11.43;;;4.93;;
3189;SDS011;1606;51.946;10.558;2023-06-10T03:30:52;9.90;;;5.33;;
3189;SDS011;1606;51.946;10.558;2023-06-10T03:33:21;17.63;;;6.10;;
3189;SDS011;1606;51.946;10.558;2023-06-10T03:35:50;14.70;;;6.07;;
3189;SDS011;1606;51.946;10.558;2023-06-10T03:38:18;10.37;;;5.37;;
3189;SDS011;1606;51.946;10.558;2023-06-10T03:40:46;12.43;;;5.17;;
3189;SDS011;1606;51.946;10.558;2023-06-10T03:43:14;12.83;;;5.43;;
3189;SDS011;1606;51.946;10.558;2023-06-10T03:45:42;9.03;;;5.17;;
3189;SDS011;1606;51.946;10.558;2023-06-10T03:48:11;10.97;;;4.87;;
3189;SDS011;1606;51.946;10.558;2023-06-10T03:50:39;11.03;;;4.80;;
3189;SDS011;1606;51.946;10.558;2023-06-10T03:53:08;12.70;;;5.77;;
3189;SDS011;1606;51.946;10.558;2023-06-10T03:55:35;10.57;;;5.60;;
3189;SDS011;1606;51.946;10.558;2023-06-10T03:58:03;12.23;;;4.53;;
3189;SDS011;1606;51.946;10.558;2023-06-10T04:00:31;14.77;;;4.90;;
3189;SDS011;1606;51.946;10.558;2023-06-10T04:03:07;13.83;;;6.87;;
3189;SDS011;1606;51.946;10.558;2023-06-10T04:05:41;12.60;;;6.60;;
3189;SDS011;1606;51.946;10.558;2023-06-10T04:08:10;12.10;;;5.50;;
3189;SDS011;1606;51.946;10.558;2023-06-10T04:10:38;10.40;;;5.57;;
3189;SDS011;1606;51.946;10.558;2023-06-10T04:13:05;12.57;;;5.10;;
3189;SDS011;1606;51.946;10.558;2023-06-10T04:15:33;10.20;;;4.80;;
3189;SDS011;1606;51.946;10.558;2023-06-10T04:18:01;12.93;;;6.17;;
3189;SDS011;1606;51.946;10.558;2023-06-10T04:20:29;12.70;;;6.50;;
3189;SDS011;1606;51.946;10.558;2023-06-10T04:22:57;13.07;;;6.13;;
3189;SDS011;1606;51.946;10.558;2023-06-10T04:25:27;13.10;;;6.17;;
3189;SDS011;1606;51.946;10.558;2023-06-10T04:27:55;10.73;;;6.07;;
3189;SDS011;1606;51.946;10.558;2023-06-10T04:30:22;13.10;;;5.88;;
3189;SDS011;1606;51.946;10.558;2023-06-10T04:32:50;11.80;;;5.60;;
3189;SDS011;1606;51.946;10.558;2023-06-10T04:35:18;12.10;;;6.63;;
3189;SDS011;1606;51.946;10.558;2023-06-10T04:37:46;17.73;;;7.03;;
3189;SDS011;1606;51.946;10.558;2023-06-10T04:40:14;12.37;;;5.50;;
3189;SDS011;1606;51.946;10.558;2023-06-10T04:42:44;12.70;;;6.30;;
3189;SDS011;1606;51.946;10.558;2023-06-10T04:45:12;10.80;;;6.20;;
3189;SDS011;1606;51.946;10.558;2023-06-10T04:47:40;13.13;;;6.40;;
3189;SDS011;1606;51.946;10.558;2023-06-10T04:50:08;12.30;;;6.50;;
3189;SDS011;1606;51.946;10.558;2023-06-10T04:52:36;12.70;;;7.43;;
3189;SDS011;1606;51.946;10.558;2023-06-10T04:55:04;18.47;;;6.10;;
3189;SDS011;1606;51.946;10.558;2023-06-10T04:57:33;11.10;;;6.33;;
3189;SDS011;1606;51.946;10.558;2023-06-10T05:00:02;12.90;;;6.20;;
3189;SDS011;1606;51.946;10.558;2023-06-10T05:02:32;13.53;;;6.83;;
3189;SDS011;1606;51.946;10.558;2023-06-10T05:05:00;13.50;;;7.00;;
3189;SDS011;1606;51.946;10.558;2023-06-10T05:07:27;12.73;;;6.70;;
3189;SDS011;1606;51.946;10.558;2023-06-10T05:09:55;17.17;;;7.17;;
3189;SDS011;1606;51.946;10.558;2023-06-10T05:12:23;15.03;;;6.37;;
3189;SDS011;1606;51.946;10.558;2023-06-10T05:14:51;15.20;;;7.77;;
3189;SDS011;1606;51.946;10.558;2023-06-10T05:17:20;17.20;;;7.17;;
3189;SDS011;1606;51.946;10.558;2023-06-10T05:19:49;16.70;;;7.03;;
3189;SDS011;1606;51.946;10.558;2023-06-10T05:22:17;14.30;;;6.60;;
3189;SDS011;1606;51.946;10.558;2023-06-10T05:24:45;14.83;;;7.23;;
3189;SDS011;1606;51.946;10.558;2023-06-10T05:27:12;15.83;;;6.40;;
3189;SDS011;1606;51.946;10.558;2023-06-10T05:29:40;14.87;;;7.13;;
3189;SDS011;1606;51.946;10.558;2023-06-10T05:32:08;16.23;;;7.00;;
3189;SDS011;1606;51.946;10.558;2023-06-10T05:34:38;15.40;;;7.63;;
3189;SDS011;1606;51.946;10.558;2023-06-10T05:37:05;14.70;;;7.40;;
3189;SDS011;1606;51.946;10.558;2023-06-10T05:39:34;18.67;;;6.50;;
3189;SDS011;1606;51.946;10.558;2023-06-10T05:42:04;14.97;;;6.70;;
3189;SDS011;1606;51.946;10.558;2023-06-10T05:44:33;15.43;;;6.80;;
3189;SDS011;1606;51.946;10.558;2023-06-10T05:47:01;16.93;;;7.73;;
3189;SDS011;1606;51.946;10.558;2023-06-10T05:49:29;11.77;;;6.80;;
3189;SDS011;1606;51.946;10.558;2023-06-10T05:51:58;12.87;;;6.50;;
3189;SDS011;1606;51.946;10.558;2023-06-10T05:54:26;15.93;;;7.10;;
3189;SDS011;1606;51.946;10.558;2023-06-10T05:56:55;12.90;;;6.20;;
3189;SDS011;1606;51.946;10.558;2023-06-10T05:59:23;16.07;;;8.30;;
3189;SDS011;1606;51.946;10.558;2023-06-10T06:01:51;12.27;;;7.47;;
3189;SDS011;1606;51.946;10.558;2023-06-10T06:04:19;14.67;;;7.10;;
3189;SDS011;1606;51.946;10.558;2023-06-10T06:06:47;13.67;;;7.40;;
3189;SDS011;1606;51.946;10.558;2023-06-10T06:09:16;12.77;;;8.37;;
3189;SDS011;1606;51.946;10.558;2023-06-10T06:11:44;14.30;;;7.10;;
3189;SDS011;1606;51.946;10.558;2023-06-10T06:14:11;13.77;;;7.50;;
3189;SDS011;1606;51.946;10.558;2023-06-10T06:16:39;15.17;;;7.43;;
3189;SDS011;1606;51.946;10.558;2023-06-10T06:19:07;15.30;;;7.07;;
3189;SDS011;1606;51.946;10.558;2023-06-10T06:21:35;14.50;;;7.60;;
3189;SDS011;1606;51.946;10.558;2023-06-10T06:24:03;18.63;;;7.43;;
3189;SDS011;1606;51.946;10.558;2023-06-10T06:26:33;11.37;;;5.87;;
3189;SDS011;1606;51.946;10.558;2023-06-10T06:29:01;11.20;;;6.17;;
3189;SDS011;1606;51.946;10.558;2023-06-10T06:31:29;12.90;;;6.80;;
3189;SDS011;1606;51.946;10.558;2023-06-10T06:33:57;13.23;;;6.60;;
3189;SDS011;1606;51.946;10.558;2023-06-10T06:36:25;14.07;;;6.80;;
3189;SDS011;1606;51.946;10.558;2023-06-10T06:38:53;13.23;;;7.10;;
3189;SDS011;1606;51.946;10.558;2023-06-10T06:41:21;11.10;;;5.97;;
3189;SDS011;1606;51.946;10.558;2023-06-10T06:43:50;10.77;;;6.37;;
3189;SDS011;1606;51.946;10.558;2023-06-10T06:46:18;13.57;;;6.43;;
3189;SDS011;1606;51.946;10.558;2023-06-10T06:48:46;13.17;;;6.73;;
3189;SDS011;1606;51.946;10.558;2023-06-10T06:51:14;14.10;;;6.17;;
3189;SDS011;1606;51.946;10.558;2023-06-10T06:53:42;11.63;;;6.77;;
3189;SDS011;1606;51.946;10.558;2023-06-10T06:56:11;14.30;;;7.27;;
3189;SDS011;1606;51.946;10.558;2023-06-10T06:58:39;15.53;;;7.00;;
3189;SDS011;1606;51.946;10.558;2023-06-10T07:01:09;17.33;;;6.57;;
3189;SDS011;1606;51.946;10.558;2023-06-10T07:03:37;12.33;;;5.50;;
3189;SDS011;1606;51.946;10.558;2023-06-10T07:06:05;14.00;;;6.47;;
3189;SDS011;1606;51.946;10.558;2023-06-10T07:08:32;13.30;;;6.20;;
3189;SDS011;1606;51.946;10.558;2023-06-10T07:11:00;14.17;;;5.90;;
3189;SDS011;1606;51.946;10.558;2023-06-10T07:13:28;15.53;;;6.53;;
3189;SDS011;1606;51.946;10.558;2023-06-10T07:15:56;11.67;;;6.30;;
3189;SDS011;1606;51.946;10.558;2023-06-10T07:18:25;12.80;;;6.57;;
3189;SDS011;1606;51.946;10.558;2023-06-10T07:20:53;15.47;;;7.73;;
3189;SDS011;1606;51.946;10.558;2023-06-10T07:23:21;15.13;;;6.80;;
3189;SDS011;1606;51.946;10.558;2023-06-10T07:25:48;12.43;;;6.47;;
3189;SDS011;1606;51.946;10.558;2023-06-10T07:28:16;12.33;;;6.63;;
3189;SDS011;1606;51.946;10.558;2023-06-10T07:30:44;12.23;;;6.63;;
3189;SDS011;1606;51.946;10.558;2023-06-10T07:33:12;16.33;;;7.50;;
3189;SDS011;1606;51.946;10.558;2023-06-10T07:35:41;11.83;;;5.90;;
3189;SDS011;1606;51.946;10.558;2023-06-10T07:38:10;12.53;;;7.50;;
3189;SDS011;1606;51.946;10.558;2023-06-10T07:40:38;13.90;;;6.20;;
3189;SDS011;1606;51.946;10.558;2023-06-10T07:43:05;12.07;;;5.90;;
3189;SDS011;1606;51.946;10.558;2023-06-10T07:45:33;11.70;;;6.57;;
3189;SDS011;1606;51.946;10.558;2023-06-10T07:48:01;11.80;;;7.00;;
3189;SDS011;1606;51.946;10.558;2023-06-10T07:50:29;13.10;;;6.40;;
3189;SDS011;1606;51.946;10.558;2023-06-10T07:52:59;11.60;;;5.70;;
3189;SDS011;1606;51.946;10.558;2023-06-10T07:55:27;13.10;;;6.73;;
3189;SDS011;1606;51.946;10.558;2023-06-10T07:57:54;12.97;;;6.10;;
3189;SDS011;1606;51.946;10.558;2023-06-10T08:00:22;12.27;;;6.77;;
3189;SDS011;1606;51.946;10.558;2023-06-10T08:02:50;12.90;;;7.00;;
3189;SDS011;1606;51.946;10.558;2023-06-10T08:05:19;10.70;;;5.53;;
3189;SDS011;1606;51.946;10.558;2023-06-10T08:07:47;13.37;;;6.17;;
3189;SDS011;1606;51.946;10.558;2023-06-10T08:10:16;12.93;;;6.80;;
3189;SDS011;1606;51.946;10.558;2023-06-10T08:12:44;10.30;;;5.57;;
3189;SDS011;1606;51.946;10.558;2023-06-10T08:15:12;11.33;;;5.97;;
3189;SDS011;1606;51.946;10.558;2023-06-10T08:17:40;12.90;;;6.30;;
3189;SDS011;1606;51.946;10.558;2023-06-10T08:20:08;12.50;;;5.90;;
3189;SDS011;1606;51.946;10.558;2023-06-10T08:22:36;11.80;;;6.60;;
3189;SDS011;1606;51.946;10.558;2023-06-10T08:25:05;12.80;;;6.50;;
3189;SDS011;1606;51.946;10.558;2023-06-10T08:27:35;11.43;;;6.17;;
3189;SDS011;1606;51.946;10.558;2023-06-10T08:30:03;14.03;;;5.90;;
3189;SDS011;1606;51.946;10.558;2023-06-10T08:32:32;12.57;;;6.50;;
3189;SDS011;1606;51.946;10.558;2023-06-10T08:34:59;12.97;;;6.33;;
3189;SDS011;1606;51.946;10.558;2023-06-10T08:37:27;12.70;;;6.93;;
3189;SDS011;1606;51.946;10.558;2023-06-10T08:39:55;12.80;;;7.30;;
3189;SDS011;1606;51.946;10.558;2023-06-10T08:42:24;12.30;;;6.43;;
3189;SDS011;1606;51.946;10.558;2023-06-10T08:44:57;12.40;;;6.27;;
3189;SDS011;1606;51.946;10.558;2023-06-10T08:47:29;16.23;;;6.57;;
3189;SDS011;1606;51.946;10.558;2023-06-10T08:49:58;13.93;;;6.83;;
3189;SDS011;1606;51.946;10.558;2023-06-10T08:52:33;13.83;;;7.67;;
3189;SDS011;1606;51.946;10.558;2023-06-10T08:55:05;10.47;;;6.40;;
3189;SDS011;1606;51.946;10.558;2023-06-10T08:57:37;13.80;;;6.83;;
3189;SDS011;1606;51.946;10.558;2023-06-10T09:00:08;12.53;;;6.40;;
3189;SDS011;1606;51.946;10.558;2023-06-10T09:02:37;11.90;;;6.60;;
3189;SDS011;1606;51.946;10.558;2023-06-10T09:05:06;10.77;;;6.50;;
3189;SDS011;1606;51.946;10.558;2023-06-10T09:07:35;12.33;;;6.90;;
3189;SDS011;1606;51.946;10.558;2023-06-10T09:10:03;14.47;;;6.33;;
3189;SDS011;1606;51.946;10.558;2023-06-10T09:12:34;10.70;;;6.83;;
3189;SDS011;1606;51.946;10.558;2023-06-10T09:15:04;13.07;;;6.80;;
3189;SDS011;1606;51.946;10.558;2023-06-10T09:17:34;13.47;;;6.80;;
3189;SDS011;1606;51.946;10.558;2023-06-10T09:20:04;13.90;;;8.30;;
3189;SDS011;1606;51.946;10.558;2023-06-10T09:22:36;11.60;;;7.40;;
3189;SDS011;1606;51.946;10.558;2023-06-10T09:25:05;13.07;;;6.87;;
3189;SDS011;1606;51.946;10.558;2023-06-10T09:27:43;13.03;;;6.60;;
3189;SDS011;1606;51.946;10.558;2023-06-10T09:30:24;23.53;;;7.77;;
3189;SDS011;1606;51.946;10.558;2023-06-10T09:32:55;14.37;;;7.97;;
3189;SDS011;1606;51.946;10.558;2023-06-10T09:35:25;13.83;;;6.90;;
3189;SDS011;1606;51.946;10.558;2023-06-10T09:37:55;19.23;;;7.90;;
3189;SDS011;1606;51.946;10.558;2023-06-10T09:40:24;10.47;;;6.70;;
3189;SDS011;1606;51.946;10.558;2023-06-10T09:42:52;18.40;;;8.53;;
3189;SDS011;1606;51.946;10.558;2023-06-10T09:45:22;11.43;;;7.70;;
3189;SDS011;1606;51.946;10.558;2023-06-10T09:47:57;16.50;;;7.50;;
3189;SDS011;1606;51.946;10.558;2023-06-10T09:50:25;12.60;;;7.00;;
3189;SDS011;1606;51.946;10.558;2023-06-10T09:52:53;11.93;;;6.40;;
3189;SDS011;1606;51.946;10.558;2023-06-10T09:55:21;12.77;;;7.20;;
3189;SDS011;1606;51.946;10.558;2023-06-10T09:57:52;13.60;;;7.83;;
3189;SDS011;1606;51.946;10.558;2023-06-10T10:00:22;15.17;;;7.53;;
3189;SDS011;1606;51.946;10.558;2023-06-10T10:02:52;10.50;;;7.07;;
3189;SDS011;1606;51.946;10.558;2023-06-10T10:05:22;12.80;;;7.63;;
3189;SDS011;1606;51.946;10.558;2023-06-10T10:07:50;9.57;;;6.40;;
3189;SDS011;1606;51.946;10.558;2023-06-10T10:10:20;10.93;;;7.67;;
3189;SDS011;1606;51.946;10.558;2023-06-10T10:12:48;11.20;;;7.33;;
3189;SDS011;1606;51.946;10.558;2023-06-10T10:15:22;12.70;;;8.00;;
3189;SDS011;1606;51.946;10.558;2023-06-10T10:17:52;11.60;;;8.20;;
3189;SDS011;1606;51.946;10.558;2023-06-10T10:20:27;12.07;;;7.07;;
3189;SDS011;1606;51.946;10.558;2023-06-10T10:22:58;10.47;;;7.10;;
3189;SDS011;1606;51.946;10.558;2023-06-10T10:25:30;14.13;;;8.27;;
3189;SDS011;1606;51.946;10.558;2023-06-10T10:28:02;13.47;;;8.03;;
3189;SDS011;1606;51.946;10.558;2023-06-10T10:30:37;10.87;;;7.27;;
3189;SDS011;1606;51.946;10.558;2023-06-10T10:33:09;13.40;;;7.35;;
3189;SDS011;1606;51.946;10.558;2023-06-10T10:35:41;12.20;;;7.87;;
3189;SDS011;1606;51.946;10.558;2023-06-10T10:38:12;12.10;;;7.53;;
3189;SDS011;1606;51.946;10.558;2023-06-10T10:40:39;12.43;;;8.43;;
3189;SDS011;1606;51.946;10.558;2023-06-10T10:43:09;12.07;;;7.67;;
3189;SDS011;1606;51.946;10.558;2023-06-10T10:45:38;18.40;;;8.93;;
3189;SDS011;1606;51.946;10.558;2023-06-10T10:48:07;10.40;;;7.63;;
3189;SDS011;1606;51.946;10.558;2023-06-10T10:50:38;13.13;;;8.67;;
3189;SDS011;1606;51.946;10.558;2023-06-10T10:53:08;12.90;;;7.97;;
3189;SDS011;1606;51.946;10.558;2023-06-10T10:55:36;16.03;;;8.70;;
3189;SDS011;1606;51.946;10.558;2023-06-10T10:58:05;11.83;;;8.50;;
3189;SDS011;1606;51.946;10.558;2023-06-10T11:00:34;11.53;;;8.13;;
3189;SDS011;1606;51.946;10.558;2023-06-10T11:03:06;12.67;;;8.17;;
3189;SDS011;1606;51.946;10.558;2023-06-10T11:05:38;14.50;;;8.47;;
3189;SDS011;1606;51.946;10.558;2023-06-10T11:08:08;10.70;;;8.07;;
3189;SDS011;1606;51.946;10.558;2023-06-10T11:10:37;12.93;;;7.70;;
3189;SDS011;1606;51.946;10.558;2023-06-10T11:13:10;12.80;;;8.50;;
3189;SDS011;1606;51.946;10.558;2023-06-10T11:15:43;10.20;;;7.47;;
3189;SDS011;1606;51.946;10.558;2023-06-10T11:18:14;12.10;;;8.67;;
3189;SDS011;1606;51.946;10.558;2023-06-10T11:20:51;10.27;;;7.40;;
3189;SDS011;1606;51.946;10.558;2023-06-10T11:23:37;11.83;;;7.50;;
3189;SDS011;1606;51.946;10.558;2023-06-10T11:29:01;14.87;;;8.50;;
3189;SDS011;1606;51.946;10.558;2023-06-10T11:31:38;9.93;;;7.50;;
3189;SDS011;1606;51.946;10.558;2023-06-10T11:34:22;12.10;;;7.60;;
3189;SDS011;1606;51.946;10.558;2023-06-10T11:36:53;10.87;;;7.23;;
3189;SDS011;1606;51.946;10.558;2023-06-10T11:39:23;11.97;;;7.63;;
3189;SDS011;1606;51.946;10.558;2023-06-10T11:41:53;13.37;;;7.13;;
3189;SDS011;1606;51.946;10.558;2023-06-10T11:44:22;12.07;;;7.73;;
3189;SDS011;1606;51.946;10.558;2023-06-10T11:46:56;10.47;;;7.00;;
3189;SDS011;1606;51.946;10.558;2023-06-10T11:49:24;12.67;;;7.77;;
3189;SDS011;1606;51.946;10.558;2023-06-10T11:51:52;10.50;;;6.70;;
3189;SDS011;1606;51.946;10.558;2023-06-10T11:54:19;12.50;;;6.87;;
3189;SDS011;1606;51.946;10.558;2023-06-10T11:56:49;10.10;;;6.97;;
3189;SDS011;1606;51.946;10.558;2023-06-10T11:59:17;14.60;;;7.97;;
3189;SDS011;1606;51.946;10.558;2023-06-10T12:01:46;10.45;;;6.65;;
3189;SDS011;1606;51.946;10.558;2023-06-10T12:04:14;10.70;;;7.10;;
3189;SDS011;1606;51.946;10.558;2023-06-10T12:06:45;13.33;;;7.50;;
3189;SDS011;1606;51.946;10.558;2023-06-10T12:09:15;12.30;;;7.60;;
3189;SDS011;1606;51.946;10.558;2023-06-10T12:11:54;9.50;;;6.80;;
3189;SDS011;1606;51.946;10.558;2023-06-10T12:17:22;10.73;;;8.00;;
3189;SDS011;1606;51.946;10.558;2023-06-10T12:20:03;13.60;;;7.90;;
3189;SDS011;1606;51.946;10.558;2023-06-10T12:22:36;10.80;;;7.43;;
3189;SDS011;1606;51.946;10.558;2023-06-10T12:25:05;9.50;;;6.97;;
3189;SDS011;1606;51.946;10.558;2023-06-10T12:27:36;10.47;;;6.57;;
3189;SDS011;1606;51.946;10.558;2023-06-10T12:30:05;13.40;;;7.30;;
3189;SDS011;1606;51.946;10.558;2023-06-10T12:32:38;11.70;;;6.60;;
3189;SDS011;1606;51.946;10.558;2023-06-10T12:35:08;12.77;;;6.43;;
3189;SDS011;1606;51.946;10.558;2023-06-10T12:37:38;9.10;;;5.97;;
3189;SDS011;1606;51.946;10.558;2023-06-10T12:40:09;11.87;;;6.83;;
3189;SDS011;1606;51.946;10.558;2023-06-10T12:42:39;8.63;;;5.37;;
3189;SDS011;1606;51.946;10.558;2023-06-10T12:45:08;12.07;;;6.10;;
3189;SDS011;1606;51.946;10.558;2023-06-10T12:47:37;10.90;;;6.83;;
3189;SDS011;1606;51.946;10.558;2023-06-10T12:50:06;10.63;;;6.47;;
3189;SDS011;1606;51.946;10.558;2023-06-10T12:52:35;11.00;;;6.30;;
3189;SDS011;1606;51.946;10.558;2023-06-10T12:55:04;11.87;;;7.30;;
3189;SDS011;1606;51.946;10.558;2023-06-10T12:57:33;9.30;;;5.80;;
3189;SDS011;1606;51.946;10.558;2023-06-10T13:00:02;10.77;;;6.40;;
3189;SDS011;1606;51.946;10.558;2023-06-10T13:02:34;13.90;;;6.37;;
3189;SDS011;1606;51.946;10.558;2023-06-10T13:05:03;9.87;;;6.07;;
3189;SDS011;1606;51.946;10.558;2023-06-10T13:07:31;8.40;;;6.30;;
3189;SDS011;1606;51.946;10.558;2023-06-10T13:09:59;10.70;;;6.27;;
3189;SDS011;1606;51.946;10.558;2023-06-10T13:12:27;9.50;;;5.60;;
3189;SDS011;1606;51.946;10.558;2023-06-10T13:15:14;11.43;;;6.10;;
3189;SDS011;1606;51.946;10.558;2023-06-10T13:17:42;10.87;;;6.10;;
3189;SDS011;1606;51.946;10.558;2023-06-10T13:20:11;9.17;;;6.17;;
3189;SDS011;1606;51.946;10.558;2023-06-10T13:22:39;10.67;;;5.90;;
3189;SDS011;1606;51.946;10.558;2023-06-10T13:25:08;9.87;;;6.20;;
3189;SDS011;1606;51.946;10.558;2023-06-10T13:27:37;10.30;;;7.00;;
3189;SDS011;1606;51.946;10.558;2023-06-10T13:30:06;10.13;;;5.90;;
3189;SDS011;1606;51.946;10.558;2023-06-10T13:32:36;12.20;;;6.30;;
3189;SDS011;1606;51.946;10.558;2023-06-10T13:35:05;8.43;;;5.90;;
3189;SDS011;1606;51.946;10.558;2023-06-10T13:37:34;10.80;;;6.37;;
3189;SDS011;1606;51.946;10.558;2023-06-10T13:40:02;8.33;;;5.90;;
3189;SDS011;1606;51.946;10.558;2023-06-10T13:42:31;10.20;;;6.23;;
3189;SDS011;1606;51.946;10.558;2023-06-10T13:44:59;11.13;;;7.00;;
3189;SDS011;1606;51.946;10.558;2023-06-10T13:47:27;9.27;;;6.33;;
3189;SDS011;1606;51.946;10.558;2023-06-10T13:49:56;8.60;;;5.67;;
3189;SDS011;1606;51.946;10.558;2023-06-10T13:52:24;7.97;;;5.30;;
3189;SDS011;1606;51.946;10.558;2023-06-10T13:54:52;11.13;;;6.00;;
3189;SDS011;1606;51.946;10.558;2023-06-10T13:57:20;9.33;;;7.00;;
3189;SDS011;1606;51.946;10.558;2023-06-10T13:59:47;12.43;;;5.63;;
3189;SDS011;1606;51.946;10.558;2023-06-10T14:02:15;8.50;;;6.10;;
3189;SDS011;1606;51.946;10.558;2023-06-10T14:04:43;8.53;;;5.77;;
3189;SDS011;1606;51.946;10.558;2023-06-10T14:07:12;9.20;;;6.43;;
3189;SDS011;1606;51.946;10.558;2023-06-10T14:09:40;9.57;;;6.30;;
3189;SDS011;1606;51.946;10.558;2023-06-10T14:12:08;11.60;;;6.77;;
3189;SDS011;1606;51.946;10.558;2023-06-10T14:14:37;9.93;;;6.53;;
3189;SDS011;1606;51.946;10.558;2023-06-10T14:17:05;14.13;;;5.80;;
3189;SDS011;1606;51.946;10.558;2023-06-10T14:19:33;8.97;;;6.73;;
3189;SDS011;1606;51.946;10.558;2023-06-10T14:22:01;11.00;;;6.80;;
3189;SDS011;1606;51.946;10.558;2023-06-10T14:24:34;11.13;;;6.60;;
3189;SDS011;1606;51.946;10.558;2023-06-10T14:27:02;10.10;;;6.20;;
3189;SDS011;1606;51.946;10.558;2023-06-10T14:29:31;11.17;;;6.30;;
3189;SDS011;1606;51.946;10.558;2023-06-10T14:32:00;13.33;;;6.37;;
3189;SDS011;1606;51.946;10.558;2023-06-10T14:34:30;11.20;;;6.23;;
3189;SDS011;1606;51.946;10.558;2023-06-10T14:36:59;10.77;;;6.70;;
3189;SDS011;1606;51.946;10.558;2023-06-10T14:39:29;14.43;;;7.07;;
3189;SDS011;1606;51.946;10.558;2023-06-10T14:41:58;9.53;;;6.57;;
3189;SDS011;1606;51.946;10.558;2023-06-10T14:44:26;10.23;;;6.87;;
3189;SDS011;1606;51.946;10.558;2023-06-10T14:46:54;11.60;;;6.80;;
3189;SDS011;1606;51.946;10.558;2023-06-10T14:49:22;12.53;;;6.67;;
3189;SDS011;1606;51.946;10.558;2023-06-10T14:51:50;10.10;;;6.87;;
3189;SDS011;1606;51.946;10.558;2023-06-10T14:54:17;10.70;;;6.50;;
3189;SDS011;1606;51.946;10.558;2023-06-10T14:56:45;9.87;;;6.53;;
3189;SDS011;1606;51.946;10.558;2023-06-10T14:59:14;9.87;;;6.30;;
3189;SDS011;1606;51.946;10.558;2023-06-10T15:01:42;9.30;;;5.93;;
3189;SDS011;1606;51.946;10.558;2023-06-10T15:04:10;12.50;;;6.90;;
3189;SDS011;1606;51.946;10.558;2023-06-10T15:06:38;10.47;;;6.30;;
3189;SDS011;1606;51.946;10.558;2023-06-10T15:09:06;14.23;;;7.17;;